Ana Sayfa
METAR-TAF:

METAR-TAF

Havaalanları :

Chihuahua, Meksika

Enlem: 28-42N, Boylam: 105-58W, yükseklik: 1360 m

Güncel hava durumu gözlemi

Rapor saat 03:46 UTC de 6 saat ve 7 dakika önce yapıldı.
Sakin rüzgar
Sıcaklık 13°C
Nem 58%
Basınç 1027 hPa
Görüş mesafesi: 16.1 km
Açık gökyüzü

METAR: MMCU 070346Z 00000KT 10SM SKC 13/05 A3032 RMK ISOL CI

Saat: 02:53 (09:53 UTC)

Tahmin

Rapor saat 04:32 UTC de 5 saat ve 21 dakika önce yapıldı.
Ayın 07'si saat 06 UTC'den ayın 08'si saat 06 UTC'ye kadar geçerli Tahmin
Rüzgar güney/güneydoğudan 5 kt
Görüş mesafesi: 10 km
Açık gökyüzü
Ayın 07'si saat 1600 UTC'den
Rüzgar güneybatıdan 10 kt
Görüş mesafesi: 10 km
25000 ft yükseklikte parçalı bulutlu
Ayın 08'si saat 0200 UTC'den
Rüzgar batı/güneybatıdan 5 kt
Görüş mesafesi: 10 km
25000 ft yükseklikte parçalı bulutlu

TAF: MMCU 070432Z 0706/0806 16005KT P6SM SKC FM071600 22010KT P6SM SCT250 FM080200 24005KT P6SM SCT250

4.000'den fazla havaalanı için hava durumu gözlemleri ve tahminleri (METAR ve TAF raporları).

Kullanılabilir istasyonlar harita üzerinde sarı ve kırmızı noktalarla gösterilir.

İstasyonun adını görmek için fareyi noktanın üzerinde gezdirin.

Sonrasında hava gözlem ve tahminlerini görmek için tıklayın.

Haritayı değiştirmek için: yaklaştırmak için siyah artı işaretli yeşil düğmeye ve uzaklaştırmak için de eksi işaretli düğmeye hızla tıklayın; bitişik haritalar için yeşil okları kullanın.


METAR-TAF: